Time;durP1;ratioP1;P1;durP2;ratioP2;P2;SDS_P1;SDS_P2;PMS_P1;PMS_P2;Temp;Humidity;BMP_temperature;BMP_pressure;BME280_temperature;BME280_humidity;BME280_pressure;Samples;Min_cycle;Max_cycle;Signal;HPM_P1;HPM_P2
2022/05/25 00:01:10;;;;;;;9.88;7.28;;;;;;;15.62;76.98;93345.19;5111300;28;20024;-45
2022/05/25 00:03:36;;;;;;;8.82;7.38;;;;;;;15.72;76.64;93340.34;5111745;28;20428;-48
2022/05/25 00:06:04;;;;;;;9.50;7.13;;;;;;;15.68;76.44;93342.84;5110835;28;20076;-49
2022/05/25 00:08:30;;;;;;;8.20;7.10;;;;;;;15.79;76.10;93344.31;5111539;28;20020;-47
2022/05/25 00:10:56;;;;;;;7.38;6.68;;;;;;;15.66;76.04;93328.03;5111259;28;20511;-48
2022/05/25 00:13:21;;;;;;;8.68;7.78;;;;;;;15.48;77.86;93335.81;5111426;28;20023;-48
2022/05/25 00:15:46;;;;;;;10.13;7.32;;;;;;;15.46;77.97;93338.44;5111518;28;20501;-48
2022/05/25 00:18:12;;;;;;;9.63;7.60;;;;;;;15.41;78.58;93338.69;5111341;28;20072;-49
2022/05/25 00:20:37;;;;;;;9.15;7.53;;;;;;;15.44;79.54;93337.56;5111369;28;20531;-48
2022/05/25 00:23:03;;;;;;;8.18;7.28;;;;;;;15.57;78.87;93339.94;5111004;28;20487;-47
2022/05/25 00:25:33;;;;;;;7.80;7.00;;;;;;;15.49;78.92;93348.41;5111240;28;20031;-47
2022/05/25 00:28:00;;;;;;;9.00;8.10;;;;;;;15.52;79.22;93341.69;5097730;28;20023;-49
2022/05/25 00:30:26;;;;;;;10.25;7.80;;;;;;;15.39;79.22;93344.84;5090554;28;20554;-49
2022/05/25 00:32:53;;;;;;;11.82;7.55;;;;;;;15.56;78.64;93341.97;5089685;28;20027;-47
2022/05/25 00:35:20;;;;;;;7.80;6.75;;;;;;;15.54;78.42;93339.03;5090492;28;20055;-46
2022/05/25 00:37:46;;;;;;;8.15;7.15;;;;;;;15.45;78.66;93341.78;5089600;28;20035;-47
2022/05/25 00:40:21;;;;;;;12.30;6.57;;;;;;;15.47;78.07;93336.38;5090308;28;20540;-48
2022/05/25 00:42:46;;;;;;;8.50;7.70;;;;;;;15.41;78.26;93338.69;5090803;28;20043;-49
2022/05/25 00:45:13;;;;;;;9.05;7.82;;;;;;;15.24;78.89;93333.97;5090560;28;20455;-46
2022/05/25 00:47:40;;;;;;;8.02;7.22;;;;;;;15.40;78.69;93345.59;5090623;28;20046;-48
2022/05/25 00:50:06;;;;;;;7.82;7.03;;;;;;;15.37;78.50;93341.91;5090356;28;20493;-46
2022/05/25 00:52:32;;;;;;;8.52;7.43;;;;;;;15.19;78.55;93343.31;5089059;28;20059;-48
2022/05/25 00:55:06;;;;;;;12.20;7.75;;;;;;;15.00;78.48;93327.34;5090289;28;20044;-47
2022/05/25 00:57:40;;;;;;;10.77;6.72;;;;;;;15.15;78.42;93343.78;5101318;28;20534;-46
2022/05/25 01:00:10;;;;;;;8.10;7.30;;;;;;;15.10;78.49;93353.13;5109278;28;20548;-48
2022/05/25 01:02:40;;;;;;;8.93;7.05;;;;;;;15.09;78.88;93356.47;5109374;28;20418;-46
2022/05/25 01:05:06;;;;;;;7.38;6.63;;;;;;;15.07;78.46;93351.47;5110849;28;20012;-48
2022/05/25 01:08:09;;;;;;;10.68;8.23;;;;;;;14.76;79.47;93353.28;5110351;28;20024;-47
2022/05/25 01:10:56;;;;;;;9.63;8.23;;;;;;;14.82;79.38;93350.97;5110559;28;20020;-46
2022/05/25 01:13:40;;;;;;;8.80;7.93;;;;;;;14.78;79.25;93345.09;5110368;28;20028;-50
2022/05/25 01:16:12;;;;;;;8.73;7.47;;;;;;;14.90;78.36;93354.34;5110769;28;20016;-47
2022/05/25 01:18:49;;;;;;;10.18;7.32;;;;;;;14.86;78.09;93345.72;5113459;28;20035;-49
2022/05/25 01:21:25;;;;;;;8.90;7.13;;;;;;;14.86;77.94;93351.25;5114832;28;20068;-47
2022/05/25 01:24:14;;;;;;;9.38;6.95;;;;;;;14.84;78.41;93345.56;5113125;28;20016;-46
2022/05/25 01:26:48;;;;;;;9.27;7.80;;;;;;;14.81;78.72;93351.53;5113622;28;20027;-46
2022/05/25 01:29:36;;;;;;;8.60;7.80;;;;;;;14.68;79.20;93355.44;5113520;28;20035;-44
2022/05/25 01:32:01;;;;;;;15.05;8.07;;;;;;;14.62;78.89;93354.94;5113454;28;20030;-44
2022/05/25 01:34:26;;;;;;;8.32;6.72;;;;;;;14.71;78.24;93357.06;5114641;28;20016;-46
2022/05/25 01:37:15;;;;;;;8.20;7.10;;;;;;;14.67;78.06;93345.63;5114140;28;20478;-47
2022/05/25 01:39:46;;;;;;;7.25;6.45;;;;;;;14.65;77.52;93359.38;5113002;28;20024;-46
2022/05/25 01:42:26;;;;;;;7.72;6.78;;;;;;;14.61;77.37;93361.84;5113203;28;20031;-46
2022/05/25 01:44:58;;;;;;;8.32;7.00;;;;;;;14.63;76.97;93364.03;5113150;28;20047;-46
2022/05/25 01:47:26;;;;;;;7.72;6.95;;;;;;;14.42;77.13;93368.00;5113124;28;20447;-45
2022/05/25 01:49:59;;;;;;;7.93;6.68;;;;;;;14.46;77.28;93364.09;5113064;28;20026;-47
2022/05/25 01:52:27;;;;;;;12.23;7.80;;;;;;;14.24;78.25;93371.38;5112790;28;20031;-46
2022/05/25 01:54:55;;;;;;;8.25;7.15;;;;;;;14.28;77.88;93371.69;5112984;28;20019;-47
2022/05/25 01:57:27;;;;;;;10.98;7.88;;;;;;;14.21;78.38;93366.97;5112560;28;20061;-49
2022/05/25 01:59:53;;;;;;;9.80;6.85;;;;;;;14.13;78.68;93375.41;5113624;28;20130;-48
2022/05/25 02:05:16;;;;;;;7.68;6.88;;;;;;;14.11;78.46;93378.03;5113103;28;20089;-48
2022/05/25 02:08:02;;;;;;;8.55;7.75;;;;;;;14.08;78.80;93386.75;5112031;28;20027;-48
2022/05/25 02:10:53;;;;;;;8.05;7.05;;;;;;;14.16;77.85;93382.56;5113690;27;20145;-47
2022/05/25 02:13:24;;;;;;;6.90;6.25;;;;;;;14.08;76.61;93379.16;5112393;28;20065;-49
2022/05/25 02:15:58;;;;;;;10.88;8.00;;;;;;;13.80;77.75;93382.44;5112668;28;20091;-47
2022/05/25 02:18:40;;;;;;;9.38;6.95;;;;;;;13.84;77.46;93382.75;5112274;28;20020;-44
2022/05/25 02:21:41;;;;;;;8.10;7.35;;;;;;;13.88;78.05;93387.91;5112214;28;20050;-45
2022/05/25 02:24:22;;;;;;;8.55;7.65;;;;;;;13.76;79.07;93390.44;5113625;28;20039;-43
2022/05/25 02:26:48;;;;;;;12.48;10.05;;;;;;;13.84;80.31;93399.41;5112505;28;20050;-45
2022/05/25 02:29:40;;;;;;;15.02;12.38;;;;;;;13.86;82.77;93393.31;5112749;28;20092;-43
2022/05/25 02:32:17;;;;;;;23.08;13.00;;;;;;;13.96;83.29;93391.34;5111035;28;20032;-45
2022/05/25 02:34:46;;;;;;;15.80;13.18;;;;;;;13.84;83.92;93379.28;5113138;28;20511;-45
2022/05/25 02:37:12;;;;;;;13.43;12.02;;;;;;;14.14;83.32;93395.56;5111840;28;20023;-45
2022/05/25 02:39:38;;;;;;;14.30;11.90;;;;;;;14.14;82.94;93401.13;5113052;28;20030;-44
2022/05/25 02:42:11;;;;;;;16.05;13.77;;;;;;;14.17;83.57;93397.19;5111820;28;20030;-44
2022/05/25 02:44:37;;;;;;;18.48;13.18;;;;;;;14.25;84.11;93400.63;5113290;28;20023;-44
2022/05/25 02:47:03;;;;;;;13.38;12.00;;;;;;;14.26;83.87;93402.81;5112873;28;20550;-46
2022/05/25 02:49:28;;;;;;;17.80;14.32;;;;;;;14.15;84.94;93394.25;5113121;28;20015;-48
2022/05/25 02:51:53;;;;;;;9.93;8.88;;;;;;;14.16;82.27;93409.63;5113137;28;20020;-47
2022/05/25 02:54:22;;;;;;;10.48;8.90;;;;;;;14.09;80.83;93410.44;5112983;28;20421;-46
2022/05/25 02:56:48;;;;;;;10.67;8.53;;;;;;;14.10;80.07;93409.84;5112506;28;20075;-45
2022/05/25 02:59:14;;;;;;;9.95;8.82;;;;;;;14.05;80.10;93412.88;5112577;28;20047;-46
2022/05/25 03:01:39;;;;;;;13.77;9.27;;;;;;;14.07;79.81;93418.59;5112664;28;20019;-45
2022/05/25 03:04:05;;;;;;;9.45;7.82;;;;;;;13.96;80.08;93424.66;5112451;27;20023;-45
2022/05/25 03:06:31;;;;;;;9.82;8.85;;;;;;;13.87;80.83;93423.25;5112521;28;20031;-46
2022/05/25 03:08:56;;;;;;;11.38;9.00;;;;;;;13.79;80.32;93413.53;5112562;27;20027;-46
2022/05/25 03:11:22;;;;;;;8.90;7.32;;;;;;;13.90;79.80;93427.69;5112218;28;20424;-45
2022/05/25 03:13:49;;;;;;;12.75;8.13;;;;;;;13.82;80.46;93431.84;5112713;28;20059;-49
2022/05/25 03:16:16;;;;;;;9.32;8.38;;;;;;;13.83;80.17;93438.84;5103186;28;20020;-44
2022/05/25 03:18:43;;;;;;;12.23;10.40;;;;;;;13.73;81.37;93440.81;5099760;28;20042;-46
2022/05/25 03:21:08;;;;;;;11.38;9.82;;;;;;;13.70;81.90;93434.34;5112580;28;20378;-46
2022/05/25 03:23:35;;;;;;;11.73;8.90;;;;;;;13.84;82.32;93438.25;5112259;28;20060;-46
2022/05/25 03:26:00;;;;;;;28.75;19.88;;;;;;;14.03;86.68;93430.13;5112400;28;20024;-48
2022/05/25 03:28:26;;;;;;;34.53;19.73;;;;;;;14.13;89.63;93436.47;5112426;28;20506;-47
2022/05/25 03:30:52;;;;;;;30.88;21.70;;;;;;;14.20;89.84;93432.16;5112352;28;20031;-47
2022/05/25 03:33:17;;;;;;;32.70;21.23;;;;;;;14.29;91.71;93446.13;5111318;28;20532;-45
2022/05/25 03:35:44;;;;;;;25.30;18.92;;;;;;;14.43;91.90;93440.97;5112179;28;20030;-45
2022/05/25 03:38:09;;;;;;;32.80;18.63;;;;;;;14.54;91.60;93439.72;5111871;28;20084;-47
2022/05/25 03:40:36;;;;;;;29.60;19.48;;;;;;;14.70;90.55;93450.09;5110839;28;20015;-46
2022/05/25 03:43:02;;;;;;;29.38;18.45;;;;;;;14.79;90.28;93454.94;5111512;27;20504;-45
2022/05/25 03:45:27;;;;;;;29.20;17.75;;;;;;;14.90;89.78;93462.06;5111482;28;20043;-45
2022/05/25 03:47:53;;;;;;;27.90;18.75;;;;;;;14.98;89.18;93460.63;5111649;28;20027;-48
2022/05/25 03:50:19;;;;;;;25.70;17.85;;;;;;;15.05;88.74;93470.19;5111620;28;20024;-47
2022/05/25 03:52:45;;;;;;;23.60;16.23;;;;;;;15.10;88.57;93474.72;5111923;28;20080;-46
2022/05/25 03:55:11;;;;;;;26.33;16.58;;;;;;;15.28;87.79;93478.91;5111587;28;20028;-50
2022/05/25 03:57:37;;;;;;;28.35;17.98;;;;;;;15.44;86.90;93479.47;5111492;28;20729;-48
2022/05/25 04:00:04;;;;;;;23.02;16.85;;;;;;;15.60;85.45;93486.97;5111100;28;20497;-45
2022/05/25 04:02:30;;;;;;;33.50;19.15;;;;;;;15.59;85.66;93487.56;5111357;28;20058;-49
2022/05/25 04:05:07;;;;;;;27.00;18.25;;;;;;;15.70;85.47;93487.03;5098668;28;20016;-49
2022/05/25 04:07:40;;;;;;;25.20;16.50;;;;;;;15.75;85.27;93486.72;5090963;28;20020;-47
2022/05/25 04:10:07;;;;;;;23.25;16.48;;;;;;;15.91;84.31;93487.22;5108090;28;20022;-51
2022/05/25 04:12:33;;;;;;;26.20;17.55;;;;;;;15.74;84.38;93490.81;5109357;27;20060;-45
2022/05/25 04:14:59;;;;;;;25.83;17.98;;;;;;;15.80;84.27;93488.50;5111262;28;20026;-46
2022/05/25 04:17:24;;;;;;;27.42;17.85;;;;;;;15.53;85.11;93487.81;5110862;28;20021;-48
2022/05/25 04:19:50;;;;;;;27.02;18.05;;;;;;;15.49;86.36;93484.75;5104679;28;20031;-50
2022/05/25 04:22:17;;;;;;;26.25;17.88;;;;;;;15.45;86.22;93486.47;5089759;28;20028;-46
2022/05/25 04:24:42;;;;;;;25.95;17.85;;;;;;;15.52;86.06;93480.06;5090426;28;20035;-46
2022/05/25 04:27:08;;;;;;;26.75;17.52;;;;;;;15.70;85.69;93489.81;5090691;28;20095;-47
2022/05/25 04:29:37;;;;;;;24.65;16.35;;;;;;;15.92;84.71;93485.88;5094696;28;20074;-50
2022/05/25 04:32:03;;;;;;;26.77;16.38;;;;;;;15.99;84.12;93487.81;5094196;28;20051;-46
2022/05/25 04:34:29;;;;;;;24.42;16.83;;;;;;;15.97;84.32;93476.53;5110864;28;20024;-50
2022/05/25 04:36:54;;;;;;;24.52;15.68;;;;;;;16.12;83.84;93483.88;5111120;28;20031;-46
2022/05/25 04:39:20;;;;;;;25.52;14.98;;;;;;;16.23;83.24;93484.03;5111127;28;20056;-46
2022/05/25 04:41:45;;;;;;;23.95;15.07;;;;;;;16.50;81.74;93490.22;5110662;28;20019;-48
2022/05/25 04:44:11;;;;;;;21.42;14.90;;;;;;;16.70;81.28;93487.47;5110688;28;20015;-45
2022/05/25 04:46:37;;;;;;;20.88;14.20;;;;;;;16.84;79.32;93491.25;5111104;28;20084;-46
2022/05/25 04:49:02;;;;;;;21.88;15.38;;;;;;;17.11;78.49;93492.50;5110943;28;20539;-48
2022/05/25 04:51:28;;;;;;;24.58;14.30;;;;;;;17.20;77.55;93488.22;5106732;28;20024;-46
2022/05/25 04:53:54;;;;;;;18.60;13.30;;;;;;;17.30;76.36;93488.97;5090520;28;20031;-50
2022/05/25 04:59:03;;;;;;;32.97;15.55;;;;;;;17.54;75.30;93493.47;5109411;28;20046;-50
2022/05/25 05:01:30;;;;;;;17.20;13.25;;;;;;;17.64;74.67;93496.19;5110519;28;20035;-46
2022/05/25 05:03:56;;;;;;;22.02;14.45;;;;;;;17.86;73.91;93492.88;5110830;28;20028;-50
2022/05/25 05:06:21;;;;;;;18.17;12.80;;;;;;;18.18;73.21;93497.84;5110664;28;20698;-46
2022/05/25 05:08:47;;;;;;;16.27;12.23;;;;;;;18.87;71.41;93489.09;5110476;28;20023;-50
2022/05/25 05:11:18;;;;;;;54.25;16.02;;;;;;;19.11;68.39;93480.78;5110402;28;20027;-47
2022/05/25 05:13:43;;;;;;;16.15;11.82;;;;;;;18.97;68.51;93500.22;5110336;28;20043;-47
2022/05/25 05:16:15;;;;;;;19.50;13.77;;;;;;;18.79;69.30;93496.25;5110717;28;20020;-47
2022/05/25 05:18:42;;;;;;;23.23;14.52;;;;;;;18.90;69.98;93499.09;5110692;28;20031;-49
2022/05/25 05:21:09;;;;;;;16.73;12.55;;;;;;;18.68;69.24;93508.09;5110729;28;20074;-50
2022/05/25 05:23:35;;;;;;;22.23;14.38;;;;;;;18.43;70.03;93516.94;5109334;28;20107;-46
2022/05/25 05:26:00;;;;;;;22.35;14.20;;;;;;;18.49;70.12;93511.78;5100698;28;20169;-44
2022/05/25 05:28:31;;;;;;;26.27;16.15;;;;;;;18.22;71.64;93511.34;5101500;28;20020;-45
2022/05/25 05:30:58;;;;;;;16.05;12.15;;;;;;;18.50;70.07;93513.25;5098184;28;20486;-48
2022/05/25 05:33:26;;;;;;;21.27;13.27;;;;;;;18.32;70.86;93511.28;5098998;28;20408;-50
2022/05/25 05:35:57;;;;;;;22.83;14.50;;;;;;;18.23;71.65;93506.50;5101855;28;20016;-47
2022/05/25 05:38:23;;;;;;;21.10;15.52;;;;;;;18.47;70.74;93502.53;5090269;28;20505;-46
2022/05/25 05:40:49;;;;;;;18.15;13.38;;;;;;;18.59;69.61;93517.28;5089378;28;20028;-45
2022/05/25 05:43:14;;;;;;;22.33;16.30;;;;;;;18.48;70.46;93523.56;5101627;28;20378;-48
2022/05/25 05:45:42;;;;;;;18.65;14.75;;;;;;;18.44;70.60;93521.22;5098688;28;20044;-48
2022/05/25 05:48:10;;;;;;;27.10;14.30;;;;;;;18.58;70.89;93530.53;5096940;28;20066;-48
2022/05/25 05:50:38;;;;;;;21.77;14.43;;;;;;;18.56;70.81;93530.41;5098163;28;20024;-45
2022/05/25 05:53:05;;;;;;;21.63;15.15;;;;;;;18.65;71.00;93537.25;5098605;28;20473;-45
2022/05/25 05:55:31;;;;;;;19.58;14.27;;;;;;;18.97;69.21;93530.25;5096873;28;20099;-44
2022/05/25 05:57:56;;;;;;;23.38;15.77;;;;;;;19.01;69.21;93531.25;5099303;28;20455;-45
2022/05/25 06:00:22;;;;;;;20.27;14.77;;;;;;;19.28;68.45;93516.84;5096004;28;20089;-47
2022/05/25 06:02:50;;;;;;;20.02;14.15;;;;;;;19.62;66.59;93519.72;5101694;28;20032;-47
2022/05/25 06:05:15;;;;;;;20.42;14.40;;;;;;;19.86;65.84;93526.09;5104601;28;20027;-49
2022/05/25 06:07:41;;;;;;;22.27;15.60;;;;;;;20.06;65.06;93518.16;5102800;27;20617;-49
2022/05/25 06:10:07;;;;;;;17.95;13.32;;;;;;;20.28;65.50;93525.88;5102990;28;20027;-45
2022/05/25 06:12:32;;;;;;;18.95;13.98;;;;;;;20.40;63.84;93525.84;5101202;28;20032;-48
2022/05/25 06:14:58;;;;;;;18.02;13.60;;;;;;;20.71;61.76;93515.06;5103048;28;20011;-47
2022/05/25 06:20:08;;;;;;;22.00;14.50;;;;;;;20.85;62.68;93520.75;5102923;28;20558;-46
2022/05/25 06:22:35;;;;;;;24.75;15.02;;;;;;;20.93;61.21;93535.97;5105088;28;20474;-48
2022/05/25 06:25:01;;;;;;;20.85;13.70;;;;;;;20.64;62.04;93526.56;5101644;27;20163;-49
2022/05/25 06:27:27;;;;;;;35.38;15.73;;;;;;;20.41;62.76;93532.94;5102840;28;20039;-48
2022/05/25 06:29:53;;;;;;;18.17;13.98;;;;;;;20.64;62.46;93537.78;5102131;28;20668;-47
2022/05/25 06:32:20;;;;;;;26.08;14.27;;;;;;;21.27;61.35;93533.69;5099649;28;20430;-45
2022/05/25 06:34:49;;;;;;;22.13;14.88;;;;;;;21.57;59.27;93538.88;5099411;27;20012;-47
2022/05/25 06:37:16;;;;;;;22.13;15.23;;;;;;;21.64;59.12;93534.31;5097102;28;20030;-51
2022/05/25 06:39:41;;;;;;;25.80;15.40;;;;;;;21.83;59.44;93531.16;5100139;28;20031;-48
2022/05/25 06:42:07;;;;;;;18.15;13.57;;;;;;;22.13;57.62;93532.06;5100083;28;20493;-46
2022/05/25 06:44:33;;;;;;;21.25;15.60;;;;;;;21.53;59.17;93523.88;5098292;28;20051;-48
2022/05/25 06:46:58;;;;;;;18.52;14.20;;;;;;;21.60;59.92;93529.22;5100215;27;20024;-50
2022/05/25 06:49:24;;;;;;;33.40;14.85;;;;;;;21.89;58.93;93515.34;5106580;28;20035;-51
2022/05/25 06:51:49;;;;;;;21.42;13.68;;;;;;;22.05;58.62;93523.91;5110621;28;20027;-50
2022/05/25 06:54:17;;;;;;;19.73;14.25;;;;;;;22.36;57.58;93529.78;5110149;28;20023;-47
2022/05/25 06:56:42;;;;;;;20.83;14.30;;;;;;;22.65;56.49;93534.06;5102202;28;20027;-49
2022/05/25 06:59:08;;;;;;;23.60;13.70;;;;;;;22.41;57.41;93530.72;5110977;28;20586;-48
2022/05/25 07:01:35;;;;;;;20.38;13.93;;;;;;;22.52;57.04;93533.41;5110105;28;20582;-46
2022/05/25 07:04:00;;;;;;;21.35;14.88;;;;;;;22.44;57.40;93523.84;5097161;28;20035;-45
2022/05/25 07:06:26;;;;;;;21.67;14.45;;;;;;;22.42;58.22;93521.66;5108540;28;20560;-48
2022/05/25 07:08:53;;;;;;;18.05;13.98;;;;;;;22.59;56.72;93523.22;5108586;28;20023;-46
2022/05/25 07:11:19;;;;;;;16.00;13.15;;;;;;;23.15;55.64;93520.41;5108855;28;20031;-47
2022/05/25 07:13:45;;;;;;;16.58;12.30;;;;;;;23.73;54.11;93533.78;5109868;28;20594;-46
2022/05/25 07:16:13;;;;;;;20.05;12.88;;;;;;;24.13;52.52;93534.22;5109661;28;20031;-46
2022/05/25 07:18:39;;;;;;;15.73;12.50;;;;;;;25.02;50.62;93525.44;5109813;28;20433;-49
2022/05/25 07:21:08;;;;;;;15.57;12.00;;;;;;;25.31;48.53;93527.31;5109087;28;20682;-47
2022/05/25 07:23:34;;;;;;;20.88;11.98;;;;;;;26.33;46.61;93521.41;5109030;28;20038;-49
2022/05/25 07:26:00;;;;;;;31.20;13.00;;;;;;;26.96;45.26;93522.28;5108935;27;20083;-48
2022/05/25 07:28:25;;;;;;;16.90;11.43;;;;;;;27.79;42.66;93525.75;5109372;28;20454;-51
2022/05/25 07:30:54;;;;;;;14.95;11.93;;;;;;;28.23;42.00;93527.13;5108920;28;20049;-47
2022/05/25 07:33:19;;;;;;;;;;;;;;;29.66;39.34;93528.19;5109789;27;20030;-46
2022/05/25 07:35:45;;;;;;;35.40;13.93;;;;;;;29.96;38.52;93528.22;5111838;28;19908;-47
2022/05/25 07:38:10;;;;;;;15.98;12.93;;;;;;;30.84;37.54;93535.09;5111041;27;20437;-48
2022/05/25 07:40:39;;;;;;;15.73;11.60;;;;;;;31.57;36.18;93531.53;5110574;28;20118;-48
2022/05/25 07:43:09;;;;;;;18.67;12.35;;;;;;;32.39;34.05;93534.97;5110424;28;20027;-47
2022/05/25 07:45:35;;;;;;;35.08;12.93;;;;;;;32.95;33.02;93534.97;5110700;28;20024;-49
2022/05/25 07:48:01;;;;;;;13.32;11.65;;;;;;;33.30;31.88;93538.97;5110920;28;20035;-48
2022/05/25 07:50:27;;;;;;;33.45;13.32;;;;;;;34.06;31.14;93544.72;5110327;28;20031;-47
2022/05/25 07:52:54;;;;;;;127.20;18.50;;;;;;;33.77;30.99;93540.88;5110883;28;20036;-47
2022/05/25 07:55:20;;;;;;;15.20;12.30;;;;;;;33.72;31.48;93553.75;5110751;28;20404;-46
2022/05/25 07:57:45;;;;;;;13.68;11.52;;;;;;;33.55;31.14;93552.84;5108518;28;20054;-47
2022/05/25 08:00:12;;;;;;;14.15;11.65;;;;;;;34.07;30.56;93554.75;5111322;28;20043;-47
2022/05/25 08:05:43;;;;;;;13.20;10.30;;;;;;;35.64;27.42;93553.44;5111327;28;20038;-49
2022/05/25 08:08:16;;;;;;;12.30;9.32;;;;;;;36.04;27.73;93552.06;5111365;28;20030;-48
2022/05/25 08:10:56;;;;;;;12.90;9.88;;;;;;;35.52;26.76;93550.53;5111619;28;20128;-50
2022/05/25 08:13:23;;;;;;;13.13;9.50;;;;;;;35.75;27.86;93534.78;5110379;28;20035;-49
2022/05/25 08:15:49;;;;;;;13.32;9.45;;;;;;;36.00;27.26;93540.53;5110373;28;20023;-48
2022/05/25 08:18:16;;;;;;;16.52;10.32;;;;;;;36.49;26.20;93533.34;5111364;28;20096;-47
2022/05/25 08:20:43;;;;;;;12.43;9.07;;;;;;;36.03;27.05;93530.47;5111530;28;20055;-48
2022/05/25 08:23:10;;;;;;;10.55;8.50;;;;;;;36.84;25.01;93526.03;5111437;27;20028;-47
2022/05/25 08:25:36;;;;;;;14.18;9.00;;;;;;;36.89;25.39;93530.34;5111062;28;20034;-47
2022/05/25 08:28:03;;;;;;;12.65;9.40;;;;;;;37.58;24.81;93536.53;5110814;28;20058;-48
2022/05/25 08:30:30;;;;;;;10.35;8.40;;;;;;;37.76;25.43;93535.69;5110889;28;20059;-47
2022/05/25 08:32:55;;;;;;;13.93;9.50;;;;;;;37.97;24.68;93542.75;5111008;28;20035;-47
2022/05/25 08:35:21;;;;;;;10.98;9.43;;;;;;;37.35;24.51;93537.38;5110579;28;20046;-49
2022/05/25 08:37:47;;;;;;;28.63;10.85;;;;;;;36.29;26.44;93541.97;5110605;28;20106;-48
2022/05/25 08:40:17;;;;;;;12.93;9.98;;;;;;;36.38;25.54;93540.53;5110624;28;20098;-48
2022/05/25 08:43:09;;;;;;;11.88;8.68;;;;;;;36.42;26.70;93555.63;5109380;28;20050;-49
2022/05/25 08:45:42;;;;;;;11.68;9.77;;;;;;;36.96;26.10;93557.69;5104581;28;20047;-48
2022/05/25 08:48:11;;;;;;;13.10;9.05;;;;;;;37.49;24.94;93554.59;5109182;28;20027;-48
2022/05/25 08:50:37;;;;;;;9.90;8.90;;;;;;;37.43;24.53;93551.72;5108985;28;20051;-49
2022/05/25 08:53:06;;;;;;;12.10;8.73;;;;;;;38.00;24.53;93557.88;5106423;28;20024;-47
2022/05/25 08:55:36;;;;;;;13.02;8.02;;;;;;;38.35;22.96;93556.91;5087476;28;20057;-48
2022/05/25 08:58:02;;;;;;;9.05;6.78;;;;;;;38.84;21.37;93551.38;5102637;28;20083;-48
2022/05/25 09:00:27;;;;;;;9.05;6.65;;;;;;;39.44;21.44;93549.25;5109243;28;20046;-47
2022/05/25 09:03:29;;;;;;;11.43;6.53;;;;;;;40.03;21.02;93552.75;5110689;28;20023;-48
2022/05/25 09:06:21;;;;;;;13.10;6.25;;;;;;;40.18;20.58;93550.38;5110553;28;20032;-47
2022/05/25 09:08:46;;;;;;;9.80;5.65;;;;;;;41.10;19.21;93545.84;5109354;28;20028;-48
2022/05/25 09:11:15;;;;;;;13.50;6.70;;;;;;;41.59;18.98;93545.56;5110816;28;20036;-48
2022/05/25 09:13:54;;;;;;;6.88;5.90;;;;;;;41.31;18.94;93540.38;5110469;28;20028;-49
2022/05/25 09:16:22;;;;;;;7.38;5.45;;;;;;;41.44;17.63;93545.16;5110796;28;20023;-49
2022/05/25 09:19:11;;;;;;;15.75;5.85;;;;;;;41.80;18.11;93545.88;5108807;28;20053;-48
2022/05/25 09:21:41;;;;;;;8.13;5.50;;;;;;;41.94;17.86;93533.91;5102648;28;20047;-51
2022/05/25 09:24:13;;;;;;;8.15;5.75;;;;;;;42.08;18.10;93536.53;5109208;28;20038;-51
2022/05/25 09:26:38;;;;;;;22.63;6.55;;;;;;;41.89;17.82;93541.31;5099664;28;20032;-49
2022/05/25 09:29:07;;;;;;;19.83;7.63;;;;;;;42.03;18.30;93541.69;5096756;28;20157;-48
2022/05/25 09:31:43;;;;;;;7.15;5.47;;;;;;;41.95;18.18;93541.16;5098246;28;20031;-48
2022/05/25 09:34:12;;;;;;;10.75;5.18;;;;;;;41.71;18.09;93538.81;5110326;28;20033;-49
2022/05/25 09:36:44;;;;;;;10.15;5.57;;;;;;;41.51;18.63;93551.53;5109339;28;20034;-49
2022/05/25 09:39:15;;;;;;;7.32;5.15;;;;;;;41.85;18.67;93547.19;5111336;28;20020;-50
2022/05/25 09:41:45;;;;;;;6.47;4.93;;;;;;;40.60;18.09;93546.78;5114196;28;20028;-47
2022/05/25 09:44:18;;;;;;;10.93;4.75;;;;;;;41.02;17.92;93548.88;5102665;28;20032;-49
2022/05/25 09:46:59;;;;;;;8.15;5.40;;;;;;;41.31;18.70;93555.56;5110859;28;20047;-48
2022/05/25 09:49:37;;;;;;;9.27;5.53;;;;;;;41.26;18.88;93562.22;5112935;28;20027;-46
2022/05/25 09:52:06;;;;;;;10.10;4.70;;;;;;;41.57;18.93;93548.50;5114129;27;20115;-49
2022/05/25 09:54:46;;;;;;;7.85;4.50;;;;;;;41.71;18.02;93559.09;5110650;28;20072;-47
2022/05/25 09:57:28;;;;;;;9.00;4.25;;;;;;;41.36;16.48;93551.13;5103922;28;20019;-50
2022/05/25 10:00:07;;;;;;;6.25;3.70;;;;;;;41.51;17.46;93551.53;5093270;28;20051;-47
2022/05/25 10:03:03;;;;;;;9.07;4.18;;;;;;;41.54;17.58;93547.13;5093710;28;20095;-49
2022/05/25 10:05:33;;;;;;;10.38;4.35;;;;;;;41.70;17.38;93554.78;5079534;28;20107;-47
2022/05/25 10:08:28;;;;;;;9.32;5.20;;;;;;;41.44;17.20;93548.06;5093285;28;20028;-46
2022/05/25 10:10:57;;;;;;;10.40;3.70;;;;;;;41.44;16.40;93538.63;5093629;28;20035;-51
2022/05/25 10:13:25;;;;;;;9.85;3.95;;;;;;;41.88;17.23;93534.78;5106369;28;20031;-48
2022/05/25 10:15:53;;;;;;;29.58;5.32;;;;;;;41.71;17.00;93527.94;5113621;28;20573;-46
2022/05/25 10:18:41;;;;;;;10.73;4.50;;;;;;;41.09;17.27;93532.09;5113461;28;20031;-47
2022/05/25 10:21:11;;;;;;;36.20;6.45;;;;;;;40.70;18.10;93537.88;5113759;27;20047;-47
2022/05/25 10:23:41;;;;;;;8.80;4.15;;;;;;;40.62;17.03;93530.09;5108537;28;20028;-49
2022/05/25 10:26:24;;;;;;;34.35;5.90;;;;;;;40.43;19.07;93528.97;5112334;28;20023;-47
2022/05/25 10:28:57;;;;;;;12.00;4.43;;;;;;;40.47;18.94;93523.13;5112195;28;20054;-47
2022/05/25 10:37:10;;;;;;;47.95;9.63;;;;;;;40.98;17.25;93519.31;5107201;28;20037;-46
2022/05/25 10:39:40;;;;;;;22.35;5.25;;;;;;;41.70;17.78;93525.78;5110629;28;20106;-47
2022/05/25 10:42:46;;;;;;;8.13;4.15;;;;;;;40.99;17.31;93509.84;5113246;28;20034;-47
2022/05/25 10:45:21;;;;;;;14.80;4.47;;;;;;;40.84;18.04;93514.50;5092762;28;20756;-47
2022/05/25 10:47:54;;;;;;;10.85;4.80;;;;;;;41.11;18.37;93511.81;5106750;28;20039;-51
2022/05/25 10:50:32;;;;;;;8.07;4.78;;;;;;;41.32;16.95;93507.75;5104362;28;20084;-50
2022/05/25 10:53:16;;;;;;;10.63;4.07;;;;;;;41.54;17.25;93510.13;5098858;28;20546;-48
2022/05/25 10:55:48;;;;;;;8.73;4.70;;;;;;;40.75;16.84;93499.44;5104349;28;20020;-49
2022/05/25 10:58:32;;;;;;;7.45;4.22;;;;;;;40.83;17.75;93513.06;5101220;28;20019;-50
2022/05/25 11:01:24;;;;;;;6.88;3.75;;;;;;;40.02;18.39;93510.84;5103332;28;20151;-47
2022/05/25 11:03:58;;;;;;;7.70;4.28;;;;;;;38.98;18.87;93516.56;5102681;28;20401;-51
2022/05/25 11:06:43;;;;;;;9.55;4.32;;;;;;;38.86;18.66;93510.22;5093108;28;20177;-48
2022/05/25 11:09:36;;;;;;;11.90;4.30;;;;;;;39.31;18.81;93508.94;5102546;28;20020;-49
2022/05/25 11:12:07;;;;;;;8.02;3.65;;;;;;;38.79;17.69;93503.78;5110277;28;20032;-50
2022/05/25 11:14:51;;;;;;;21.55;4.50;;;;;;;38.90;18.35;93501.53;5109996;28;20039;-47
2022/05/25 11:17:35;;;;;;;9.82;4.22;;;;;;;38.57;20.18;93498.25;5108956;28;20076;-49
2022/05/25 11:20:17;;;;;;;8.88;4.30;;;;;;;38.57;19.48;93493.19;5110000;28;20027;-46
2022/05/25 11:23:04;;;;;;;7.88;4.28;;;;;;;38.17;19.47;93489.97;5109868;28;20058;-50
2022/05/25 11:25:44;;;;;;;6.57;4.70;;;;;;;37.26;19.71;93487.72;5109970;28;20023;-47
2022/05/25 11:28:15;;;;;;;7.22;4.35;;;;;;;36.72;22.13;93485.06;5109042;28;20024;-47
2022/05/25 11:30:43;;;;;;;8.90;4.10;;;;;;;36.32;21.54;93483.03;5109907;28;20037;-49
2022/05/25 11:33:25;;;;;;;8.00;4.63;;;;;;;36.21;23.10;93478.72;5109964;28;20024;-48
2022/05/25 11:36:24;;;;;;;9.20;4.75;;;;;;;35.96;21.38;93478.03;5104489;28;20152;-49
2022/05/25 11:39:48;;;;;;;12.48;4.90;;;;;;;35.36;23.53;93469.34;5089430;28;20031;-48
2022/05/25 11:42:37;;;;;;;9.18;4.78;;;;;;;34.56;23.44;93461.22;5052258;28;20532;-48
2022/05/25 11:45:23;;;;;;;9.35;5.10;;;;;;;34.45;24.68;93471.88;5066181;28;20020;-47
2022/05/25 11:47:54;;;;;;;11.77;4.90;;;;;;;34.44;25.02;93473.31;5077767;28;20127;-48
2022/05/25 11:50:29;;;;;;;10.65;4.47;;;;;;;34.47;23.67;93468.31;5089462;28;20111;-49
2022/05/25 11:53:41;;;;;;;8.50;3.90;;;;;;;34.30;24.97;93476.84;5087833;28;20584;-49
2022/05/25 11:56:23;;;;;;;8.68;5.28;;;;;;;33.84;25.29;93482.22;5069533;28;20036;-52
2022/05/25 11:58:48;;;;;;;27.10;5.85;;;;;;;33.96;25.53;93478.75;5087405;28;20568;-48